createdAt,value
2018-09-14T00:00:07.358Z,0
2018-09-14T00:01:17.481Z,0
2018-09-14T00:02:27.346Z,0
2018-09-14T00:03:37.206Z,0
2018-09-14T00:04:47.130Z,0
2018-09-14T00:05:57.255Z,0
2018-09-14T00:07:06.830Z,0
2018-09-14T00:08:16.681Z,0
2018-09-14T00:09:26.255Z,0
2018-09-14T00:10:36.385Z,0
2018-09-14T00:11:46.248Z,0
2018-09-14T00:12:56.109Z,0
2018-09-14T00:14:05.692Z,0
2018-09-14T00:15:15.549Z,0
2018-09-14T00:16:25.457Z,0
2018-09-14T00:17:35.309Z,0
2018-09-14T00:18:44.890Z,0
2018-09-14T00:19:55.019Z,0
2018-09-14T00:21:04.889Z,0
2018-09-14T00:22:14.464Z,0
2018-09-14T00:23:23.767Z,0
2018-09-14T00:24:33.902Z,0
2018-09-14T00:25:43.755Z,0
2018-09-14T00:26:53.882Z,0
2018-09-14T00:28:03.511Z,0
2018-09-14T00:29:13.646Z,0
2018-09-14T00:30:23.502Z,0
2018-09-14T00:31:33.358Z,0
2018-09-14T00:32:43.485Z,0
2018-09-14T00:33:53.386Z,0
2018-09-14T00:35:03.504Z,0
2018-09-14T00:36:13.357Z,0
2018-09-14T00:37:23.488Z,0
2018-09-14T00:38:33.614Z,0
2018-09-14T00:39:43.794Z,0
2018-09-14T00:40:53.658Z,0
2018-09-14T00:42:03.794Z,0
2018-09-14T00:43:13.647Z,0
2018-09-14T00:44:23.779Z,0
2018-09-14T00:45:33.963Z,0
2018-09-14T00:46:43.816Z,0
2018-09-14T00:47:53.942Z,0
2018-09-14T00:49:03.795Z,0
2018-09-14T00:50:13.387Z,0
2018-09-14T00:51:23.291Z,0
2018-09-14T00:52:33.152Z,0
2018-09-14T00:53:43.290Z,0
2018-09-14T00:54:52.597Z,0
2018-09-14T00:56:02.451Z,0
2018-09-14T00:57:12.353Z,0
2018-09-14T00:58:22.485Z,0
2018-09-14T00:59:32.336Z,0
2018-09-14T01:00:42.458Z,0
2018-09-14T01:01:52.037Z,0
2018-09-14T01:03:02.221Z,0
2018-09-14T01:04:11.806Z,0
2018-09-14T01:05:21.930Z,0
2018-09-14T01:06:31.511Z,0
2018-09-14T01:07:41.692Z,0
2018-09-14T01:08:51.869Z,0
2018-09-14T01:10:01.445Z,0
2018-09-14T01:11:11.633Z,0
2018-09-14T01:12:21.753Z,0
2018-09-14T01:13:31.611Z,0
2018-09-14T01:14:41.794Z,0
2018-09-14T01:15:51.654Z,0
2018-09-14T01:17:01.840Z,0
2018-09-14T01:18:11.683Z,0
2018-09-14T01:19:21.808Z,0
2018-09-14T01:20:31.999Z,0
2018-09-14T01:21:42.129Z,0
2018-09-14T01:22:52.262Z,0
2018-09-14T01:24:02.401Z,0
2018-09-14T01:25:12.257Z,0
2018-09-14T01:26:22.157Z,0
2018-09-14T01:27:32.281Z,0
2018-09-14T01:28:42.406Z,0
2018-09-14T01:29:52.538Z,0
2018-09-14T01:31:02.392Z,0
2018-09-14T01:32:12.020Z,0
2018-09-14T01:33:21.874Z,0
2018-09-14T01:34:32.005Z,0
2018-09-14T01:35:42.127Z,0
2018-09-14T01:36:52.253Z,0
2018-09-14T01:38:02.157Z,0
2018-09-14T01:39:12.283Z,0
2018-09-14T01:40:22.145Z,0
2018-09-14T01:41:32.274Z,0
2018-09-14T01:42:42.407Z,0
2018-09-14T01:43:52.363Z,0
2018-09-14T01:45:02.496Z,0
2018-09-14T01:46:12.360Z,0
2018-09-14T01:47:22.265Z,0
2018-09-14T01:48:32.476Z,0
2018-09-14T01:49:42.454Z,0
2018-09-14T01:50:52.665Z,0
2018-09-14T01:52:02.875Z,0
2018-09-14T01:53:12.807Z,0
2018-09-14T01:54:23.018Z,0
2018-09-14T01:55:33.528Z,0
2018-09-14T01:56:43.455Z,0
2018-09-14T01:57:53.104Z,0
2018-09-14T01:59:03.318Z,0
2018-09-14T02:00:13.250Z,0
2018-09-14T02:01:23.229Z,0
2018-09-14T02:02:33.457Z,0
2018-09-14T02:03:43.670Z,0
2018-09-14T02:04:53.879Z,0
2018-09-14T02:06:04.091Z,0
2018-09-14T02:07:14.021Z,0
2018-09-14T02:08:23.392Z,0
2018-09-14T02:09:33.039Z,0
2018-09-14T02:10:42.966Z,0
2018-09-14T02:11:52.620Z,0
2018-09-14T02:13:02.880Z,0
2018-09-14T02:14:13.086Z,0
2018-09-14T02:15:23.293Z,0
2018-09-14T02:16:33.504Z,0
2018-09-14T02:17:43.434Z,0
2018-09-14T02:18:53.748Z,0
2018-09-14T02:20:03.686Z,0
2018-09-14T02:21:13.616Z,0
2018-09-14T02:22:23.830Z,0
2018-09-14T02:23:34.035Z,0
2018-09-14T02:24:44.555Z,0
2018-09-14T02:25:54.488Z,0
2018-09-14T02:27:04.442Z,0
2018-09-14T02:28:14.374Z,0
2018-09-14T02:29:24.304Z,0
2018-09-14T02:30:34.265Z,0
2018-09-14T02:31:44.207Z,0
2018-09-14T02:32:54.447Z,0
2018-09-14T02:34:04.427Z,0
2018-09-14T02:35:14.704Z,0
2018-09-14T02:36:24.691Z,0
2018-09-14T02:37:34.628Z,0
2018-09-14T02:38:44.853Z,0
2018-09-14T02:39:54.789Z,0
2018-09-14T02:41:04.443Z,0
2018-09-14T02:42:14.958Z,0
2018-09-14T02:43:24.761Z,0
2018-09-14T02:44:34.691Z,0
2018-09-14T02:45:44.900Z,0
2018-09-14T02:46:55.119Z,0
2018-09-14T02:48:07.337Z,0
2018-09-14T02:49:17.265Z,0
2018-09-14T02:50:27.195Z,0
2018-09-14T02:51:37.426Z,0
2018-09-14T02:52:47.354Z,0
2018-09-14T02:53:57.574Z,0
2018-09-14T02:55:06.944Z,0
2018-09-14T02:56:16.879Z,0
2018-09-14T02:57:26.814Z,0
2018-09-14T02:58:36.756Z,0
2018-09-14T02:59:48.972Z,0
2018-09-14T03:00:59.191Z,0
2018-09-14T03:02:09.124Z,0
2018-09-14T03:03:19.053Z,0
2018-09-14T03:04:28.983Z,0
2018-09-14T03:05:39.203Z,0
2018-09-14T03:06:49.436Z,0
2018-09-14T03:07:59.660Z,0
2018-09-14T03:09:09.308Z,0
2018-09-14T03:10:19.237Z,0
2018-09-14T03:11:29.234Z,0
2018-09-14T03:12:39.498Z,0
2018-09-14T03:13:49.714Z,0
2018-09-14T03:14:59.361Z,0
2018-09-14T03:16:09.025Z,0
2018-09-14T03:17:18.959Z,0
2018-09-14T03:18:29.168Z,0
2018-09-14T03:19:39.402Z,0
2018-09-14T03:20:49.062Z,0
2018-09-14T03:21:59.275Z,0
2018-09-14T03:23:09.257Z,0
2018-09-14T03:24:19.473Z,0
2018-09-14T03:25:29.412Z,0
2018-09-14T03:26:39.633Z,0
2018-09-14T03:27:49.849Z,0
2018-09-14T03:29:00.111Z,0
2018-09-14T03:30:10.086Z,0
2018-09-14T03:31:20.311Z,0
2018-09-14T03:32:30.604Z,0
2018-09-14T03:33:40.545Z,0
2018-09-14T03:34:50.816Z,0
2018-09-14T03:36:00.744Z,0
2018-09-14T03:37:10.677Z,0
2018-09-14T03:38:20.898Z,0
2018-09-14T03:39:31.126Z,0
2018-09-14T03:40:40.835Z,0
2018-09-14T03:41:50.485Z,0
2018-09-14T03:43:00.135Z,0
2018-09-14T03:44:09.790Z,0
2018-09-14T03:45:19.775Z,0
2018-09-14T03:46:29.424Z,0
2018-09-14T03:47:39.634Z,0
2018-09-14T03:48:49.568Z,0
2018-09-14T03:49:59.502Z,0
2018-09-14T03:51:09.437Z,0
2018-09-14T03:52:19.694Z,0
2018-09-14T03:53:29.914Z,0
2018-09-14T03:54:39.563Z,0
2018-09-14T03:55:49.490Z,0
2018-09-14T03:56:59.426Z,0
2018-09-14T03:58:09.507Z,0
2018-09-14T03:59:19.444Z,0
2018-09-14T04:00:29.655Z,0
2018-09-14T04:01:39.023Z,0
2018-09-14T04:02:48.668Z,0
2018-09-14T04:03:58.938Z,4
2018-09-14T04:05:08.879Z,4
2018-09-14T04:06:19.214Z,0
2018-09-14T04:07:29.144Z,4
2018-09-14T04:08:39.085Z,4
2018-09-14T04:09:48.511Z,4
2018-09-14T04:10:58.452Z,8
2018-09-14T04:12:08.386Z,4
2018-09-14T04:13:18.598Z,8
2018-09-14T04:14:28.526Z,12
2018-09-14T04:15:38.784Z,12
2018-09-14T04:16:48.994Z,12
2018-09-14T04:17:58.363Z,16
2018-09-14T04:19:08.023Z,16
2018-09-14T04:20:17.973Z,20
2018-09-14T04:21:28.070Z,24
2018-09-14T04:22:37.999Z,24
2018-09-14T04:23:48.332Z,28
2018-09-14T04:24:58.267Z,32
2018-09-14T04:26:08.252Z,36
2018-09-14T04:27:18.508Z,40
2018-09-14T04:28:28.442Z,44
2018-09-14T04:29:38.674Z,48
2018-09-14T04:30:48.605Z,52
2018-09-14T04:31:58.817Z,60
2018-09-14T04:33:09.091Z,68
2018-09-14T04:34:18.749Z,72
2018-09-14T04:35:28.694Z,80
2018-09-14T04:36:38.623Z,88
2018-09-14T04:37:48.837Z,96
2018-09-14T04:38:59.165Z,104
2018-09-14T04:40:08.818Z,112
2018-09-14T04:41:18.196Z,120
2018-09-14T04:42:28.148Z,132
2018-09-14T04:43:37.795Z,144
2018-09-14T04:44:48.057Z,160
2018-09-14T04:45:57.990Z,188
2018-09-14T04:47:07.942Z,216
2018-09-14T04:48:18.324Z,232
2018-09-14T04:49:28.592Z,256
2018-09-14T04:50:38.580Z,276
2018-09-14T04:51:48.797Z,292
2018-09-14T04:52:58.738Z,312
2018-09-14T04:54:08.985Z,332
2018-09-14T04:55:18.942Z,356
2018-09-14T04:56:29.012Z,384
2018-09-14T04:57:39.236Z,412
2018-09-14T04:58:49.169Z,452
2018-09-14T04:59:59.379Z,504
2018-09-14T05:01:09.327Z,568
2018-09-14T05:02:19.311Z,632
2018-09-14T05:03:29.774Z,704
2018-09-14T05:04:39.431Z,764
2018-09-14T05:05:49.642Z,828
2018-09-14T05:06:59.861Z,868
2018-09-14T05:08:11.835Z,920
2018-09-14T05:09:21.766Z,988
2018-09-14T05:10:31.980Z,1028
2018-09-14T05:11:41.912Z,1048
2018-09-14T05:12:51.849Z,1048
2018-09-14T05:14:02.012Z,1064
2018-09-14T05:15:12.317Z,1084
2018-09-14T05:16:22.528Z,1096
2018-09-14T05:17:32.455Z,1100
2018-09-14T05:18:42.671Z,1100
2018-09-14T05:19:52.697Z,1116
2018-09-14T05:21:02.907Z,1128
2018-09-14T05:22:13.121Z,1140
2018-09-14T05:23:23.055Z,1168
2018-09-14T05:24:33.528Z,1196
2018-09-14T05:25:43.299Z,1204
2018-09-14T05:26:53.518Z,1200
2018-09-14T05:28:03.455Z,1268
2018-09-14T05:29:13.666Z,1396
2018-09-14T05:30:23.884Z,1496
2018-09-14T05:31:33.861Z,1588
2018-09-14T05:32:43.799Z,1692
2018-09-14T05:33:54.013Z,1780
2018-09-14T05:35:03.945Z,1884
2018-09-14T05:36:13.873Z,2004
2018-09-14T05:37:23.850Z,2048
2018-09-14T05:38:33.958Z,2004
2018-09-14T05:39:44.166Z,1908
2018-09-14T05:40:54.102Z,1864
2018-09-14T05:42:04.032Z,1876
2018-09-14T05:43:14.294Z,1884
2018-09-14T05:44:24.222Z,1896
2018-09-14T05:45:33.909Z,1840
2018-09-14T05:46:43.911Z,1868
2018-09-14T05:47:54.177Z,1900
2018-09-14T05:49:03.608Z,1880
2018-09-14T05:50:13.261Z,1876
2018-09-14T05:51:22.911Z,1948
2018-09-14T05:52:33.123Z,2032
2018-09-14T05:53:43.058Z,2168
2018-09-14T05:54:53.049Z,2396
2018-09-14T05:56:02.702Z,2668
2018-09-14T05:57:12.353Z,2892
2018-09-14T05:58:22.565Z,3056
2018-09-14T05:59:32.217Z,3124
2018-09-14T06:00:42.497Z,3180
2018-09-14T06:01:52.150Z,3164
2018-09-14T06:03:02.371Z,3016
2018-09-14T06:04:12.309Z,2940
2018-09-14T06:05:22.519Z,2820
2018-09-14T06:06:32.634Z,2652
2018-09-14T06:07:43.038Z,2560
2018-09-14T06:08:53.256Z,2464
2018-09-14T06:10:03.472Z,2360
2018-09-14T06:11:13.126Z,2240
2018-09-14T06:12:23.384Z,2072
2018-09-14T06:13:33.591Z,1948
2018-09-14T06:14:43.802Z,1844
2018-09-14T06:15:53.451Z,1796
2018-09-14T06:17:03.971Z,1772
2018-09-14T06:18:14.149Z,1776
2018-09-14T06:19:24.078Z,1768
2018-09-14T06:20:34.007Z,1748
2018-09-14T06:21:44.224Z,1696
2018-09-14T06:22:54.360Z,1656
2018-09-14T06:24:04.428Z,1628
2018-09-14T06:25:14.639Z,1624
2018-09-14T06:26:24.587Z,1592
2018-09-14T06:27:34.518Z,1564
2018-09-14T06:28:44.165Z,1536
2018-09-14T06:29:54.142Z,1524
2018-09-14T06:31:04.075Z,1528
2018-09-14T06:32:14.297Z,1600
2018-09-14T06:33:24.507Z,1736
2018-09-14T06:34:34.733Z,1896
2018-09-14T06:35:44.161Z,2024
2018-09-14T06:36:53.811Z,2124
2018-09-14T06:38:04.068Z,2240
2018-09-14T06:39:14.323Z,2340
2018-09-14T06:40:24.259Z,2400
2018-09-14T06:41:33.681Z,2448
2018-09-14T06:42:43.337Z,2504
2018-09-14T06:43:53.551Z,2544
2018-09-14T06:45:03.796Z,2560
2018-09-14T06:46:13.854Z,2580
2018-09-14T06:47:24.120Z,2616
2018-09-14T06:48:33.489Z,2656
2018-09-14T06:49:43.880Z,2684
2018-09-14T06:50:54.072Z,2740
2018-09-14T06:52:04.263Z,2808
2018-09-14T06:53:14.434Z,2888
2018-09-14T06:54:24.743Z,2936
2018-09-14T06:55:34.688Z,2896
2018-09-14T06:56:44.339Z,2804
2018-09-14T06:57:53.706Z,2760
2018-09-14T06:59:03.685Z,2816
2018-09-14T07:00:14.103Z,2932
2018-09-14T07:01:24.576Z,3032
2018-09-14T07:02:34.232Z,3088
2018-09-14T07:03:44.159Z,3120
2018-09-14T07:04:54.423Z,3132
2018-09-14T07:06:04.353Z,3168
2018-09-14T07:07:14.518Z,3236
2018-09-14T07:08:24.651Z,3308
2018-09-14T07:09:34.503Z,3412
2018-09-14T07:10:44.455Z,3636
2018-09-14T07:11:54.304Z,3928
2018-09-14T07:13:04.281Z,4276
2018-09-14T07:14:14.186Z,4684
2018-09-14T07:15:24.320Z,5096
2018-09-14T07:16:34.497Z,5496
2018-09-14T07:17:44.628Z,5820
2018-09-14T07:18:54.758Z,6032
2018-09-14T07:20:04.607Z,6164
2018-09-14T07:21:14.177Z,6116
2018-09-14T07:22:24.602Z,6048
2018-09-14T07:23:34.764Z,5960
2018-09-14T07:24:45.584Z,5704
2018-09-14T07:25:55.994Z,5540
2018-09-14T07:27:05.951Z,5396
2018-09-14T07:28:15.877Z,5104
2018-09-14T07:29:25.595Z,4932
2018-09-14T07:30:35.221Z,4884
2018-09-14T07:31:45.258Z,4856
2018-09-14T07:32:55.696Z,4796
2018-09-14T07:34:05.377Z,4780
2018-09-14T07:35:15.229Z,4956
2018-09-14T07:36:25.197Z,5208
2018-09-14T07:37:34.781Z,5372
2018-09-14T07:38:44.630Z,5308
2018-09-14T07:39:54.533Z,5324
2018-09-14T07:41:04.387Z,5484
2018-09-14T07:42:14.240Z,5652
2018-09-14T07:43:23.819Z,5856
2018-09-14T07:44:33.963Z,6112
2018-09-14T07:45:44.145Z,6264
2018-09-14T07:46:54.027Z,6300
2018-09-14T07:48:03.330Z,6380
2018-09-14T07:49:13.517Z,6536
2018-09-14T07:50:23.644Z,6728
2018-09-14T07:51:33.498Z,6952
2018-09-14T07:52:43.075Z,7132
2018-09-14T07:53:52.927Z,7392
2018-09-14T07:55:02.777Z,7724
2018-09-14T07:56:12.639Z,7896
2018-09-14T07:57:22.813Z,7968
2018-09-14T07:58:32.396Z,8040
2018-09-14T07:59:42.551Z,8136
2018-09-14T08:00:52.676Z,8120
2018-09-14T08:02:02.799Z,8104
2018-09-14T08:03:12.426Z,8076
2018-09-14T08:04:22.563Z,8100
2018-09-14T08:05:32.143Z,8348
2018-09-14T08:06:42.279Z,8540
2018-09-14T08:07:52.411Z,8648
2018-09-14T08:09:02.267Z,8744
2018-09-14T08:10:12.121Z,8824
2018-09-14T08:11:21.973Z,9012
2018-09-14T08:12:32.108Z,9144
2018-09-14T08:13:42.376Z,9324
2018-09-14T08:14:52.233Z,9352
2018-09-14T08:16:01.814Z,9252
2018-09-14T08:17:11.681Z,9120
2018-09-14T08:18:21.538Z,9064
2018-09-14T08:19:31.391Z,9148
2018-09-14T08:20:40.971Z,9252
2018-09-14T08:21:51.936Z,9320
2018-09-14T08:23:02.287Z,9576
2018-09-14T08:24:12.142Z,9888
2018-09-14T08:25:22.270Z,9768
2018-09-14T08:26:32.392Z,9428
2018-09-14T08:27:41.968Z,9108
2018-09-14T08:28:51.822Z,9148
2018-09-14T08:30:01.950Z,9180
2018-09-14T08:31:11.803Z,9164
2018-09-14T08:32:22.108Z,9044
2018-09-14T08:33:31.697Z,8948
2018-09-14T08:34:41.277Z,8988
2018-09-14T08:35:51.420Z,8892
2018-09-14T08:37:01.546Z,8924
2018-09-14T08:38:11.405Z,9112
2018-09-14T08:39:21.535Z,9260
2018-09-14T08:40:31.387Z,9556
2018-09-14T08:41:41.571Z,9796
2018-09-14T08:42:51.424Z,9760
2018-09-14T08:44:01.007Z,9772
2018-09-14T08:45:11.135Z,9660
2018-09-14T08:46:20.716Z,9556
2018-09-14T08:47:30.032Z,9472
2018-09-14T08:48:40.170Z,9496
2018-09-14T08:49:50.030Z,9552
2018-09-14T08:50:59.605Z,9672
2018-09-14T08:52:09.183Z,9784
2018-09-14T08:53:19.036Z,9948
2018-09-14T08:54:29.223Z,9876
2018-09-14T08:55:39.402Z,9804
2018-09-14T08:56:49.531Z,9736
2018-09-14T08:57:59.171Z,9848
2018-09-14T08:59:09.487Z,10160
2018-09-14T09:00:19.372Z,10396
2018-09-14T09:01:29.232Z,10460
2018-09-14T09:02:39.359Z,10476
2018-09-14T09:03:49.345Z,10328
2018-09-14T09:04:59.260Z,10208
2018-09-14T09:06:09.130Z,9960
2018-09-14T09:07:18.962Z,9696
2018-09-14T09:08:29.395Z,9476
2018-09-14T09:09:39.529Z,9528
2018-09-14T09:10:49.381Z,9808
2018-09-14T09:11:59.506Z,9820
2018-09-14T09:13:09.080Z,9892
2018-09-14T09:14:19.219Z,9896
2018-09-14T09:15:29.343Z,9824
2018-09-14T09:16:39.206Z,9948
2018-09-14T09:17:49.769Z,9940
2018-09-14T09:18:59.654Z,9968
2018-09-14T09:20:09.795Z,9948
2018-09-14T09:21:20.136Z,9784
2018-09-14T09:22:30.273Z,9640
2018-09-14T09:23:40.550Z,9736
2018-09-14T09:24:50.448Z,9852
2018-09-14T09:26:00.024Z,9860
2018-09-14T09:27:09.880Z,9824
2018-09-14T09:28:19.749Z,9260
2018-09-14T09:29:29.378Z,8720
2018-09-14T09:30:39.441Z,8616
2018-09-14T09:31:49.292Z,8900
2018-09-14T09:32:59.155Z,9204
2018-09-14T09:34:08.743Z,9128
2018-09-14T09:35:18.876Z,9160
2018-09-14T09:36:29.006Z,8856
2018-09-14T09:37:39.133Z,8808
2018-09-14T09:38:49.269Z,8896
2018-09-14T09:39:59.404Z,9140
2018-09-14T09:41:08.713Z,9288
2018-09-14T09:42:19.070Z,9508
2018-09-14T09:43:30.054Z,9864
2018-09-14T09:44:40.607Z,9940
2018-09-14T09:45:50.461Z,9976
2018-09-14T09:47:00.610Z,10252
2018-09-14T09:48:10.739Z,10884
2018-09-14T09:49:20.320Z,11504
2018-09-14T09:50:30.177Z,11928
2018-09-14T09:51:40.045Z,12204
2018-09-14T09:52:49.906Z,12356
2018-09-14T09:53:59.759Z,12352
2018-09-14T09:55:09.917Z,12452
2018-09-14T09:56:20.063Z,12604
2018-09-14T09:57:29.915Z,12368
2018-09-14T09:58:39.498Z,12048
2018-09-14T09:59:49.625Z,11776
2018-09-14T10:00:59.205Z,11772
2018-09-14T10:02:09.102Z,12000
2018-09-14T10:03:18.952Z,11996
2018-09-14T10:04:28.806Z,12388
2018-09-14T10:05:38.992Z,12260
2018-09-14T10:06:49.122Z,11880
2018-09-14T10:07:59.252Z,11856
2018-09-14T10:09:09.387Z,12140
2018-09-14T10:10:19.518Z,12224
2018-09-14T10:11:29.654Z,12400
2018-09-14T10:12:39.234Z,12912
2018-09-14T10:13:49.369Z,13396
2018-09-14T10:14:59.678Z,13412
2018-09-14T10:16:09.669Z,13040
2018-09-14T10:17:19.802Z,12916
2018-09-14T10:18:29.935Z,13020
2018-09-14T10:19:40.063Z,13376
2018-09-14T10:20:49.968Z,13552
2018-09-14T10:22:00.388Z,13632
2018-09-14T10:23:10.521Z,13756
2018-09-14T10:24:20.374Z,13692
2018-09-14T10:25:30.228Z,13172
2018-09-14T10:26:40.466Z,12912
2018-09-14T10:27:50.058Z,12820
2018-09-14T10:29:00.001Z,12880
2018-09-14T10:30:10.370Z,13432
2018-09-14T10:31:19.958Z,13780
2018-09-14T10:32:29.815Z,13936
2018-09-14T10:33:39.948Z,14564
2018-09-14T10:34:50.080Z,15092
2018-09-14T10:35:59.940Z,15496
2018-09-14T10:37:10.139Z,15548
2018-09-14T10:38:20.056Z,15472
2018-09-14T10:39:29.636Z,15796
2018-09-14T10:40:40.023Z,16352
2018-09-14T10:41:50.282Z,16192
2018-09-14T10:43:00.843Z,15560
2018-09-14T10:44:10.692Z,14888
2018-09-14T10:45:21.189Z,14240
2018-09-14T10:46:31.502Z,14072
2018-09-14T10:47:41.078Z,14544
2018-09-14T10:48:51.152Z,14776
2018-09-14T10:50:01.373Z,15064
2018-09-14T10:51:11.366Z,15068
2018-09-14T10:52:21.644Z,14948
2018-09-14T10:53:31.873Z,14992
2018-09-14T10:54:41.832Z,15244
2018-09-14T10:55:52.056Z,15656
2018-09-14T10:57:01.916Z,16064
2018-09-14T10:58:11.775Z,15640
2018-09-14T10:59:21.905Z,15392
2018-09-14T11:00:31.761Z,15172
2018-09-14T11:01:41.615Z,15216
2018-09-14T11:02:51.743Z,15564
2018-09-14T11:04:01.603Z,15780
2018-09-14T11:05:11.184Z,16928
2018-09-14T11:06:21.045Z,33152
2018-09-14T11:07:30.901Z,46944
2018-09-14T11:08:41.036Z,44576
2018-09-14T11:09:50.720Z,43648
2018-09-14T11:11:00.904Z,42496
2018-09-14T11:12:10.491Z,42304
2018-09-14T11:13:20.357Z,38528
2018-09-14T11:14:29.947Z,41824
2018-09-14T11:15:39.809Z,43648
2018-09-14T11:16:49.949Z,44384
2018-09-14T11:18:00.097Z,37472
2018-09-14T11:19:10.531Z,33728
2018-09-14T11:20:20.675Z,28064
2018-09-14T11:21:30.819Z,29920
2018-09-14T11:22:40.410Z,33792
2018-09-14T11:23:49.995Z,31264
2018-09-14T11:25:00.572Z,33472
2018-09-14T11:26:10.956Z,28000
2018-09-14T11:27:21.102Z,29248
2018-09-14T11:28:31.238Z,29312
2018-09-14T11:29:41.381Z,30016
2018-09-14T11:30:51.247Z,31424
2018-09-14T11:32:01.104Z,28416
2018-09-14T11:33:10.961Z,30624
2018-09-14T11:34:21.143Z,30944
2018-09-14T11:35:31.328Z,31328
2018-09-14T11:36:41.464Z,37536
2018-09-14T11:37:51.380Z,36640
2018-09-14T11:39:01.888Z,36768
2018-09-14T11:40:11.472Z,38592
2018-09-14T11:41:21.334Z,38112
2018-09-14T11:42:31.468Z,36640
2018-09-14T11:43:41.050Z,40256
2018-09-14T11:44:50.634Z,38848
2018-09-14T11:46:00.649Z,42624
2018-09-14T11:47:10.959Z,39488
2018-09-14T11:48:20.832Z,41248
2018-09-14T11:49:30.696Z,23680
2018-09-14T11:50:40.891Z,42848
2018-09-14T11:51:51.028Z,49184
2018-09-14T11:53:00.910Z,44128
2018-09-14T11:54:11.554Z,34560
2018-09-14T11:55:21.658Z,44288
2018-09-14T11:56:31.519Z,43840
2018-09-14T11:57:41.660Z,33696
2018-09-14T11:58:50.975Z,49184
2018-09-14T12:00:00.850Z,50944
2018-09-14T12:01:10.995Z,50304
2018-09-14T12:02:20.595Z,52992
2018-09-14T12:03:30.473Z,47968
2018-09-14T12:04:40.609Z,43232
2018-09-14T12:05:50.757Z,19264
2018-09-14T12:07:00.891Z,15020
2018-09-14T12:08:11.031Z,15468
2018-09-14T12:09:21.166Z,16992
2018-09-14T12:10:31.299Z,22144
2018-09-14T12:11:41.158Z,20256
2018-09-14T12:12:50.745Z,25472
2018-09-14T12:14:01.311Z,32192
2018-09-14T12:15:10.855Z,32064
2018-09-14T12:16:20.990Z,32480
2018-09-14T12:17:30.857Z,31296
2018-09-14T12:18:40.716Z,29856
2018-09-14T12:19:50.912Z,28736
2018-09-14T12:21:00.779Z,28224
2018-09-14T12:22:10.858Z,29408
2018-09-14T12:23:20.523Z,30208
2018-09-14T12:24:29.833Z,32416
2018-09-14T12:25:39.975Z,32608
2018-09-14T12:26:50.115Z,29344
2018-09-14T12:27:59.979Z,27104
2018-09-14T12:29:09.846Z,25920
2018-09-14T12:30:19.161Z,25536
2018-09-14T12:31:29.070Z,27008
2018-09-14T12:32:39.213Z,28448
2018-09-14T12:33:49.349Z,28864
2018-09-14T12:34:58.937Z,30400
2018-09-14T12:36:08.518Z,29024
2018-09-14T12:37:18.809Z,31296
2018-09-14T12:38:28.946Z,29536
2018-09-14T12:39:39.084Z,29600
2018-09-14T12:40:49.219Z,29472
2018-09-14T12:41:59.074Z,29888
2018-09-14T12:43:08.706Z,29184
2018-09-14T12:44:18.565Z,32704
2018-09-14T12:45:28.165Z,34048
2018-09-14T12:46:38.302Z,34016
2018-09-14T12:47:48.159Z,32064
2018-09-14T12:48:58.182Z,31648
2018-09-14T12:50:08.326Z,30400
2018-09-14T12:51:18.186Z,29728
2018-09-14T12:52:28.050Z,28224
2018-09-14T12:53:37.359Z,26464
2018-09-14T12:54:47.619Z,23552
2018-09-14T12:55:57.203Z,23584
2018-09-14T12:57:07.060Z,23136
2018-09-14T12:58:17.192Z,18976
2018-09-14T12:59:27.054Z,16704
2018-09-14T13:00:36.962Z,23872
2018-09-14T13:01:47.097Z,22016
2018-09-14T13:02:56.687Z,21856
2018-09-14T13:04:06.606Z,22944
2018-09-14T13:05:16.810Z,19904
2018-09-14T13:06:26.996Z,19488
2018-09-14T13:07:36.314Z,18720
2018-09-14T13:08:46.445Z,17888
2018-09-14T13:09:56.316Z,19136
2018-09-14T13:11:06.447Z,18496
2018-09-14T13:12:16.683Z,22400
2018-09-14T13:13:26.546Z,19520
2018-09-14T13:14:36.623Z,20256
2018-09-14T13:15:46.491Z,22976
2018-09-14T13:16:56.353Z,23296
2018-09-14T13:18:06.533Z,20768
2018-09-14T13:19:16.398Z,18496
2018-09-14T13:20:26.533Z,18016
2018-09-14T13:21:36.110Z,17856
2018-09-14T13:22:46.245Z,17568
2018-09-14T13:23:55.828Z,17184
2018-09-14T13:25:05.409Z,16640
2018-09-14T13:26:15.540Z,15472
2018-09-14T13:27:25.122Z,14344
2018-09-14T13:28:34.711Z,13504
2018-09-14T13:29:44.903Z,13096
2018-09-14T13:30:55.034Z,13220
2018-09-14T13:32:04.894Z,13632
2018-09-14T13:33:14.757Z,13860
2018-09-14T13:34:24.891Z,14072
2018-09-14T13:35:34.801Z,14188
2018-09-14T13:36:44.663Z,14268
2018-09-14T13:37:54.520Z,14164
2018-09-14T13:39:04.378Z,13808
2018-09-14T13:40:14.309Z,13476
2018-09-14T13:41:24.542Z,13356
2018-09-14T13:42:34.144Z,13620
2018-09-14T13:43:44.000Z,14304
2018-09-14T13:44:54.017Z,15112
2018-09-14T13:46:03.876Z,15644
2018-09-14T13:47:13.738Z,16192
2018-09-14T13:48:23.867Z,16256
2018-09-14T13:49:34.003Z,16256
2018-09-14T13:50:44.148Z,15732
2018-09-14T13:51:53.458Z,15412
2018-09-14T13:53:03.644Z,15332
2018-09-14T13:54:13.514Z,15048
2018-09-14T13:55:23.648Z,14660
2018-09-14T13:56:33.787Z,14848
2018-09-14T13:57:43.923Z,15180
2018-09-14T13:58:53.610Z,15096
2018-09-14T14:00:03.523Z,14772
2018-09-14T14:01:13.209Z,14364
2018-09-14T14:02:23.491Z,14452
2018-09-14T14:03:33.352Z,14316
2018-09-14T14:04:43.265Z,14868
2018-09-14T14:05:53.397Z,15464
2018-09-14T14:07:03.580Z,15412
2018-09-14T14:08:13.441Z,15736
2018-09-14T14:09:23.311Z,16192
2018-09-14T14:10:33.199Z,14900
2018-09-14T14:11:43.334Z,13704
2018-09-14T14:12:53.467Z,13824
2018-09-14T14:14:03.336Z,14024
2018-09-14T14:15:13.471Z,14692
2018-09-14T14:16:23.754Z,15204
2018-09-14T14:17:34.452Z,14784
2018-09-14T14:18:44.717Z,14856
2018-09-14T14:19:54.863Z,15360
2018-09-14T14:21:05.238Z,15776
2018-09-14T14:22:15.533Z,18144
2018-09-14T14:23:25.672Z,18944
2018-09-14T14:24:35.540Z,15800
2018-09-14T14:25:45.394Z,16064
2018-09-14T14:26:55.541Z,17056
2018-09-14T14:28:05.731Z,16544
2018-09-14T14:29:15.870Z,15772
2018-09-14T14:30:25.730Z,15492
2018-09-14T14:31:35.868Z,18016
2018-09-14T14:32:45.730Z,22944
2018-09-14T14:33:55.387Z,24608
2018-09-14T14:35:05.017Z,26368
2018-09-14T14:36:14.903Z,30464
2018-09-14T14:37:25.043Z,30912
2018-09-14T14:38:35.184Z,36736
2018-09-14T14:39:45.092Z,41632
2018-09-14T14:40:54.951Z,36832
2018-09-14T14:42:04.314Z,25408
2018-09-14T14:43:13.346Z,25696
2018-09-14T14:44:23.482Z,37056
2018-09-14T14:45:33.679Z,32768
2018-09-14T14:46:43.846Z,24128
2018-09-14T14:47:53.987Z,30208
2018-09-14T14:49:03.851Z,41056
2018-09-14T14:50:13.986Z,19648
2018-09-14T14:51:24.179Z,32672
2018-09-14T14:52:34.314Z,24160
2018-09-14T14:53:44.451Z,15744
2018-09-14T14:54:54.580Z,13804
2018-09-14T14:56:04.732Z,12300
2018-09-14T14:57:15.087Z,10824
2018-09-14T14:58:24.694Z,9740
2018-09-14T14:59:35.005Z,9160
2018-09-14T15:00:45.217Z,8816
2018-09-14T15:01:55.354Z,9440
2018-09-14T15:03:05.273Z,10268
2018-09-14T15:04:15.431Z,10564
2018-09-14T15:05:25.565Z,10428
2018-09-14T15:06:35.429Z,10204
2018-09-14T15:07:45.282Z,9908
2018-09-14T15:08:55.468Z,9272
2018-09-14T15:10:05.055Z,8844
2018-09-14T15:11:14.916Z,8572
2018-09-14T15:12:24.787Z,8528
2018-09-14T15:13:34.775Z,8136
2018-09-14T15:14:44.857Z,7980
2018-09-14T15:15:54.715Z,7812
2018-09-14T15:17:04.573Z,7612
2018-09-14T15:18:14.710Z,7692
2018-09-14T15:19:25.407Z,7680
2018-09-14T15:20:35.339Z,7736
2018-09-14T15:21:45.196Z,7664
2018-09-14T15:22:55.048Z,7592
2018-09-14T15:24:05.074Z,7304
2018-09-14T15:25:15.214Z,6972
2018-09-14T15:26:25.121Z,7028
2018-09-14T15:27:34.706Z,7172
2018-09-14T15:28:44.565Z,7160
2018-09-14T15:29:54.748Z,6932
2018-09-14T15:31:04.606Z,6680
2018-09-14T15:32:14.839Z,6316
2018-09-14T15:33:24.696Z,5884
2018-09-14T15:34:34.284Z,5492
2018-09-14T15:35:44.153Z,5148
2018-09-14T15:36:53.737Z,4936
2018-09-14T15:38:03.650Z,4812
2018-09-14T15:39:13.505Z,4720
2018-09-14T15:40:23.642Z,4648
2018-09-14T15:41:33.219Z,4464
2018-09-14T15:42:43.080Z,4424
2018-09-14T15:43:52.906Z,4548
2018-09-14T15:45:02.760Z,4660
2018-09-14T15:46:12.900Z,4668
2018-09-14T15:47:22.757Z,4564
2018-09-14T15:48:32.341Z,4384